Cataula, Georgia
Current Conditions -  °F | °C
As of 4:51 AM on Sunday 26 Oct 2014 (Local Time) from KCSG Reporting Station
Clear Clear  
Wind Chill: 57°   Ceiling: Unl
Heat Index: 57°   Visibility: 10mi
Dew Point: 53°   Wind: 0mph
Humidity: 87%   Direction: NA
Pressure: 29.99"   Gusts: NA
Location:  32.66°N, 84.87°W
Report Text: KCSG 260851Z AUTO 00000KT 10SM CLR 14/12 A2999 RMK AO2 SLP153 T01390117 58010
Loading
Personal Weather Stations






























Interactive Weather Map
Tropical Storm Tracking
New forecast layout! Learn more

10-Day Weather Forecast

Advertisements
Track Severe Weather on mobile